Time;durP1;ratioP1;P1;durP2;ratioP2;P2;SDS_P1;SDS_P2;PMS_P1;PMS_P2;Temp;Humidity;BMP_temperature;BMP_pressure;BME280_temperature;BME280_humidity;BME280_pressure;Samples;Min_cycle;Max_cycle;Signal;HPM_P1;HPM_P2
2023/08/20 00:00:41;;;;;;;1.90;1.80;;;;;;;30.54;47.50;98865.97;2085548;28;20072;-50
2023/08/20 00:01:42;;;;;;;1.67;1.58;;;;;;;30.52;47.68;98877.19;2082844;28;20128;-52
2023/08/20 00:02:46;;;;;;;2.33;2.13;;;;;;;30.53;47.74;98864.31;2082911;28;20067;-49
2023/08/20 00:03:47;;;;;;;2.28;2.13;;;;;;;30.54;47.23;98865.97;2083147;28;20045;-49
2023/08/20 00:04:50;;;;;;;2.35;1.92;;;;;;;30.54;47.39;98861.31;2082555;28;20158;-49
2023/08/20 00:05:51;;;;;;;2.22;2.00;;;;;;;30.54;47.25;98868.69;2081906;28;20049;-49
2023/08/20 00:06:55;;;;;;;3.67;2.40;;;;;;;30.54;47.42;98866.78;2083410;28;20056;-51
2023/08/20 00:07:56;;;;;;;2.35;2.10;;;;;;;30.52;47.41;98868.97;2081034;28;20080;-50
2023/08/20 00:08:58;;;;;;;2.35;2.05;;;;;;;30.53;47.22;98867.84;2085180;28;22094;-51
2023/08/20 00:09:59;;;;;;;2.30;2.10;;;;;;;30.55;47.30;98867.59;2088493;28;20053;-52
2023/08/20 00:11:00;;;;;;;2.25;2.13;;;;;;;30.53;47.35;98865.13;2083214;28;20081;-51
2023/08/20 00:12:02;;;;;;;1.90;1.80;;;;;;;30.53;47.34;98865.13;2087940;28;20049;-60
2023/08/20 00:13:05;;;;;;;2.42;2.30;;;;;;;30.50;47.54;98866.50;2083029;28;20124;-52
2023/08/20 00:14:05;;;;;;;2.40;2.20;;;;;;;30.50;47.26;98871.97;2084646;28;20049;-49
2023/08/20 00:15:08;;;;;;;2.50;2.30;;;;;;;30.50;47.69;98860.19;2082962;28;20063;-50
2023/08/20 00:16:10;;;;;;;2.40;2.20;;;;;;;30.53;47.31;98867.84;2086252;28;20063;-51
2023/08/20 00:17:12;;;;;;;2.15;1.95;;;;;;;30.52;47.39;98860.75;2075937;28;20041;-54
2023/08/20 00:18:14;;;;;;;3.45;2.35;;;;;;;30.50;47.42;98860.19;2085891;28;20048;-50
2023/08/20 00:19:16;;;;;;;2.17;1.98;;;;;;;30.50;47.32;98869.22;2082138;28;20049;-52
2023/08/20 00:20:18;;;;;;;2.28;2.15;;;;;;;30.52;47.42;98865.41;2085920;28;20052;-51
2023/08/20 00:21:19;;;;;;;2.10;1.92;;;;;;;30.52;47.74;98863.50;2083522;28;20207;-53
2023/08/20 00:22:24;;;;;;;1.90;1.80;;;;;;;30.54;47.63;98865.97;2084136;28;20299;-49
2023/08/20 00:23:26;;;;;;;2.42;2.22;;;;;;;30.52;47.66;98862.66;2082881;28;20064;-50
2023/08/20 00:24:29;;;;;;;2.35;2.10;;;;;;;30.52;47.39;98868.16;2085153;28;20099;-52
2023/08/20 00:25:30;;;;;;;2.25;2.15;;;;;;;30.52;47.22;98868.16;2084145;28;20055;-49
2023/08/20 00:26:32;;;;;;;1.88;1.77;;;;;;;30.52;47.62;98863.50;2083839;28;20511;-51
2023/08/20 00:27:33;;;;;;;2.20;2.00;;;;;;;30.52;47.76;98870.88;2084736;28;20135;-51
2023/08/20 00:28:38;;;;;;;2.13;2.00;;;;;;;30.52;47.25;98870.88;2085985;28;20434;-50
2023/08/20 00:29:39;;;;;;;2.40;1.85;;;;;;;30.52;47.26;98868.97;2081558;28;20108;-54
2023/08/20 00:30:41;;;;;;;3.05;2.00;;;;;;;30.52;47.14;98866.22;2079784;28;20115;-53
2023/08/20 00:31:41;;;;;;;1.73;1.63;;;;;;;30.51;47.67;98867.34;2082370;28;20525;-51
2023/08/20 00:32:43;;;;;;;1.92;1.83;;;;;;;30.50;47.27;98865.66;2081665;28;20041;-50
2023/08/20 00:33:44;;;;;;;2.20;2.00;;;;;;;30.52;47.51;98868.16;2080935;28;20054;-51
2023/08/20 00:34:46;;;;;;;1.92;1.83;;;;;;;30.50;47.42;98865.66;2082599;28;20598;-53
2023/08/20 00:35:46;;;;;;;3.17;2.42;;;;;;;30.52;47.46;98865.41;2084087;28;20068;-49
2023/08/20 00:36:48;;;;;;;3.45;2.40;;;;;;;30.52;47.55;98868.16;2084860;28;20487;-53
2023/08/20 00:37:50;;;;;;;2.20;2.00;;;;;;;30.51;47.50;98870.06;2081560;28;20037;-53
2023/08/20 00:38:52;;;;;;;2.10;2.00;;;;;;;30.52;47.27;98870.88;2086974;28;20060;-51
2023/08/20 00:39:53;;;;;;;2.17;1.98;;;;;;;30.50;47.40;98866.50;2085600;28;20052;-51
2023/08/20 00:40:55;;;;;;;1.83;1.73;;;;;;;30.50;47.62;98868.41;2084885;28;20476;-49
2023/08/20 00:41:56;;;;;;;2.58;2.20;;;;;;;30.52;47.60;98868.16;2083454;28;20045;-50
2023/08/20 00:42:57;;;;;;;2.00;1.90;;;;;;;30.52;47.77;98873.63;2086902;28;21150;-53
2023/08/20 00:43:58;;;;;;;1.80;1.70;;;;;;;30.50;47.32;98866.50;2082535;28;20129;-50
2023/08/20 00:45:00;;;;;;;2.10;1.90;;;;;;;30.52;47.54;98865.41;2087052;28;20040;-49
2023/08/20 00:46:01;;;;;;;2.40;2.13;;;;;;;30.50;47.43;98866.50;2082364;28;20084;-53
2023/08/20 00:47:06;;;;;;;2.25;2.05;;;;;;;30.50;47.38;98866.50;2087026;28;20041;-52
2023/08/20 00:48:07;;;;;;;2.45;1.98;;;;;;;30.51;47.20;98864.59;2083570;28;20041;-52
2023/08/20 00:49:08;;;;;;;2.63;2.38;;;;;;;30.51;47.69;98867.34;2083517;28;20139;-51
2023/08/20 00:50:11;;;;;;;2.30;2.10;;;;;;;30.50;47.49;98869.22;2086339;28;20064;-51
2023/08/20 00:51:13;;;;;;;2.22;2.03;;;;;;;30.47;47.78;98861.56;2084332;28;20423;-53
2023/08/20 00:52:15;;;;;;;2.08;1.98;;;;;;;30.49;47.90;98864.03;2083966;28;20077;-53
2023/08/20 00:53:19;;;;;;;2.45;2.25;;;;;;;30.48;47.38;98863.22;2082813;28;20469;-53
2023/08/20 00:54:20;;;;;;;2.90;2.33;;;;;;;30.47;47.41;98864.31;2082970;28;20052;-49
2023/08/20 00:55:21;;;;;;;2.00;1.80;;;;;;;30.48;47.46;98865.97;2087095;28;21131;-54
2023/08/20 00:56:23;;;;;;;1.88;1.75;;;;;;;30.47;47.45;98864.31;2084751;28;20060;-50
2023/08/20 00:57:23;;;;;;;2.53;2.33;;;;;;;30.47;47.54;98863.50;2087147;28;20053;-51
2023/08/20 00:58:25;;;;;;;2.95;2.05;;;;;;;30.47;47.43;98869.78;2086291;28;20503;-53
2023/08/20 00:59:28;;;;;;;2.35;2.17;;;;;;;30.49;47.70;98870.34;2081317;28;20056;-53
2023/08/20 01:00:30;;;;;;;1.85;1.75;;;;;;;30.48;47.38;98867.88;2084178;28;20041;-49
2023/08/20 01:01:31;;;;;;;2.20;1.90;;;;;;;30.49;47.48;98864.84;2084065;28;20045;-51
2023/08/20 01:02:33;;;;;;;2.85;2.47;;;;;;;30.49;47.65;98870.34;2084912;28;20511;-52
2023/08/20 01:03:34;;;;;;;2.10;2.00;;;;;;;30.50;47.83;98871.97;2084148;28;20048;-49
2023/08/20 01:04:35;;;;;;;2.03;1.92;;;;;;;30.46;47.92;98865.41;2086882;28;20115;-52
2023/08/20 01:05:41;;;;;;;2.00;1.90;;;;;;;30.49;47.46;98873.06;2085032;28;20383;-54
2023/08/20 01:06:52;;;;;;;2.00;1.90;;;;;;;30.48;47.74;98871.44;2086878;28;20071;-54
2023/08/20 01:08:13;;;;;;;2.25;1.92;;;;;;;30.45;47.66;98873.88;2082118;28;20045;-54
2023/08/20 01:09:25;;;;;;;2.10;2.00;;;;;;;30.42;47.84;98874.44;2083480;28;20132;-49
2023/08/20 01:10:39;;;;;;;2.53;2.20;;;;;;;30.42;47.49;98872.56;2082466;28;21007;-49
2023/08/20 01:11:48;;;;;;;2.13;1.88;;;;;;;30.43;47.94;98871.44;2082225;28;21247;-51
2023/08/20 01:12:50;;;;;;;1.98;1.88;;;;;;;30.44;47.68;98875.00;2087549;28;20068;-49
2023/08/20 01:13:51;;;;;;;1.98;1.85;;;;;;;30.44;47.45;98878.53;2083406;28;20041;-49
2023/08/20 01:14:52;;;;;;;1.92;1.83;;;;;;;30.47;47.74;98872.53;2087882;28;20396;-50
2023/08/20 01:15:54;;;;;;;2.33;2.13;;;;;;;30.47;47.74;98879.91;2083051;28;20049;-53
2023/08/20 01:16:55;;;;;;;1.95;1.85;;;;;;;30.48;47.58;98881.56;2085035;28;20045;-50
2023/08/20 01:17:57;;;;;;;1.85;1.75;;;;;;;30.47;47.38;98879.91;2083660;28;20050;-52
2023/08/20 01:18:57;;;;;;;2.42;1.92;;;;;;;30.48;47.38;98885.13;2082542;28;20069;-51
2023/08/20 01:19:59;;;;;;;2.20;2.00;;;;;;;30.48;47.59;98887.88;2082721;28;20045;-54
2023/08/20 01:21:06;;;;;;;2.75;2.35;;;;;;;30.46;47.47;98887.31;2087019;28;20041;-49
2023/08/20 01:22:28;;;;;;;2.17;1.98;;;;;;;30.45;47.50;98888.41;2083123;28;20128;-53
2023/08/20 01:24:02;;;;;;;2.53;2.05;;;;;;;30.42;47.41;98890.88;2084773;28;20072;-51
2023/08/20 01:25:18;;;;;;;2.33;2.13;;;;;;;30.42;47.91;98890.88;2083758;28;20048;-57
2023/08/20 01:26:46;;;;;;;1.70;1.60;;;;;;;30.40;47.50;98891.16;2081993;28;20073;-51
2023/08/20 01:27:59;;;;;;;1.98;1.80;;;;;;;30.41;47.70;98891.97;2073804;28;20587;-52
2023/08/20 01:29:04;;;;;;;1.58;1.48;;;;;;;30.44;47.50;98896.88;2075274;28;20412;-52
2023/08/20 01:30:07;;;;;;;2.28;2.10;;;;;;;30.44;47.82;98891.41;2076749;28;20450;-49
2023/08/20 01:31:08;;;;;;;1.77;1.67;;;;;;;30.46;47.77;98887.31;2078461;28;20050;-51
2023/08/20 01:32:10;;;;;;;1.85;1.75;;;;;;;30.49;47.31;98891.41;2075351;28;20068;-52
2023/08/20 01:33:13;;;;;;;2.40;2.20;;;;;;;30.48;47.77;98892.53;2077832;28;20052;-53
2023/08/20 01:34:14;;;;;;;1.70;1.60;;;;;;;30.47;47.71;98894.41;2075689;28;20413;-54
2023/08/20 01:35:17;;;;;;;2.80;2.03;;;;;;;30.49;47.27;98894.16;2076690;28;20091;-55
2023/08/20 01:36:18;;;;;;;3.05;2.33;;;;;;;30.48;47.43;98895.25;2075501;28;20075;-55
2023/08/20 01:37:20;;;;;;;2.15;1.95;;;;;;;30.47;47.56;98888.94;2076098;28;20041;-54
2023/08/20 01:38:22;;;;;;;2.13;2.03;;;;;;;30.46;47.47;98886.50;2074967;28;20091;-50
2023/08/20 01:39:24;;;;;;;2.35;2.15;;;;;;;30.45;47.46;98890.31;2075815;28;20091;-55
2023/08/20 01:40:25;;;;;;;2.03;1.92;;;;;;;30.46;47.86;98890.03;2075004;28;20091;-52
2023/08/20 01:41:27;;;;;;;2.72;2.40;;;;;;;30.47;48.00;98897.16;2075226;28;20049;-53
2023/08/20 01:42:27;;;;;;;3.03;1.98;;;;;;;30.47;47.33;98894.41;2073072;28;20539;-53
2023/08/20 01:43:29;;;;;;;2.08;1.98;;;;;;;30.48;47.78;98895.25;2076488;28;20057;-52
2023/08/20 01:44:31;;;;;;;2.33;2.15;;;;;;;30.48;47.35;98898.00;2073363;28;20046;-53
2023/08/20 01:45:32;;;;;;;2.55;1.88;;;;;;;30.48;47.60;98904.28;2075287;28;20524;-50
2023/08/20 01:46:34;;;;;;;2.33;2.17;;;;;;;30.46;47.51;98901.00;2075679;28;20087;-53
2023/08/20 01:47:35;;;;;;;1.90;1.80;;;;;;;30.47;47.45;98899.06;2074517;28;20060;-52
2023/08/20 01:48:37;;;;;;;1.90;1.80;;;;;;;30.47;47.62;98899.88;2074854;28;20056;-50
2023/08/20 01:49:37;;;;;;;2.13;2.03;;;;;;;30.47;47.81;98901.81;2075619;28;20045;-50
2023/08/20 01:50:40;;;;;;;3.30;2.00;;;;;;;30.45;47.40;98899.38;2077051;28;20051;-50
2023/08/20 01:51:41;;;;;;;2.00;1.88;;;;;;;30.47;47.51;98894.41;2075652;28;20045;-52
2023/08/20 01:52:42;;;;;;;1.95;1.85;;;;;;;30.46;47.89;98898.25;2075509;28;20492;-52
2023/08/20 01:53:43;;;;;;;2.10;1.85;;;;;;;30.46;47.44;98895.53;2074679;28;20514;-51
2023/08/20 01:54:45;;;;;;;2.20;1.92;;;;;;;30.46;47.50;98898.25;2076652;28;20052;-52
2023/08/20 01:55:46;;;;;;;2.30;2.10;;;;;;;30.46;47.64;98891.97;2074836;28;20053;-49
2023/08/20 01:56:48;;;;;;;2.20;1.90;;;;;;;30.44;47.66;98897.69;2075698;28;20046;-50
2023/08/20 01:57:49;;;;;;;1.95;1.85;;;;;;;30.45;47.39;98898.53;2072482;28;20782;-49
2023/08/20 01:58:49;;;;;;;2.08;1.98;;;;;;;30.46;47.55;98891.97;2074815;28;20080;-50
2023/08/20 01:59:53;;;;;;;2.80;2.60;;;;;;;30.44;47.29;98892.22;2075084;28;20179;-52
2023/08/20 02:00:54;;;;;;;1.83;1.73;;;;;;;30.45;47.25;98896.63;2076123;28;20045;-53
2023/08/20 02:01:55;;;;;;;2.30;2.10;;;;;;;30.46;47.49;98897.44;2073624;28;20045;-50
2023/08/20 02:02:56;;;;;;;2.35;2.15;;;;;;;30.44;47.53;98894.97;2076211;28;20147;-49
2023/08/20 02:03:58;;;;;;;2.33;2.15;;;;;;;30.45;47.38;98887.56;2075063;28;20198;-51
2023/08/20 02:04:59;;;;;;;2.30;2.10;;;;;;;30.46;47.33;98895.53;2076928;28;20137;-55
2023/08/20 02:06:00;;;;;;;2.17;2.08;;;;;;;30.47;47.32;98896.34;2074771;28;20129;-52
2023/08/20 02:07:01;;;;;;;2.55;2.35;;;;;;;30.46;47.86;98894.72;2076752;28;20045;-51
2023/08/20 02:08:03;;;;;;;1.88;1.77;;;;;;;30.45;47.67;98896.63;2075859;28;20049;-50
2023/08/20 02:09:05;;;;;;;2.90;2.55;;;;;;;30.46;47.52;98898.25;2075656;28;20665;-49
2023/08/20 02:10:07;;;;;;;2.33;2.15;;;;;;;30.48;47.49;98896.06;2075127;28;20052;-49
2023/08/20 02:11:08;;;;;;;3.05;2.50;;;;;;;30.44;47.30;98899.63;2075324;28;20318;-51
2023/08/20 02:12:09;;;;;;;1.73;1.63;;;;;;;30.44;47.30;98892.22;2074110;28;20046;-49
2023/08/20 02:13:11;;;;;;;2.20;2.00;;;;;;;30.46;47.87;98897.44;2075547;28;20064;-49
2023/08/20 02:14:12;;;;;;;2.45;2.25;;;;;;;30.45;47.36;98895.78;2074675;28;20536;-52
2023/08/20 02:15:15;;;;;;;2.17;1.98;;;;;;;30.46;47.25;98898.25;2074320;28;20065;-51
2023/08/20 02:16:16;;;;;;;1.85;1.75;;;;;;;30.44;47.39;98897.69;2072791;28;20045;-54
2023/08/20 02:17:17;;;;;;;2.38;2.17;;;;;;;30.43;47.55;98895.25;2075017;28;20363;-49
2023/08/20 02:18:19;;;;;;;2.15;1.95;;;;;;;30.42;47.71;98901.81;2073828;28;20526;-56
2023/08/20 02:19:20;;;;;;;2.55;2.35;;;;;;;30.43;47.61;98898.81;2075966;28;20281;-49
2023/08/20 02:20:22;;;;;;;1.95;1.85;;;;;;;30.45;47.45;98898.53;2074549;28;21571;-49
2023/08/20 02:21:23;;;;;;;2.17;2.05;;;;;;;30.45;47.67;98901.25;2075504;28;20045;-49
2023/08/20 02:22:25;;;;;;;2.20;2.00;;;;;;;30.46;47.18;98902.91;2075357;28;20636;-49
2023/08/20 02:23:26;;;;;;;2.22;2.05;;;;;;;30.45;47.68;98902.09;2076942;28;20095;-50
2023/08/20 02:24:27;;;;;;;2.17;2.08;;;;;;;30.44;47.48;98896.88;2074198;28;20053;-52
2023/08/20 02:25:28;;;;;;;2.05;1.95;;;;;;;30.43;47.80;98896.06;2075004;28;20340;-49
2023/08/20 02:26:30;;;;;;;2.03;1.92;;;;;;;30.43;47.56;98896.06;2074439;28;20492;-49
2023/08/20 02:27:31;;;;;;;2.40;2.17;;;;;;;30.43;47.20;98907.03;2074881;28;20056;-50
2023/08/20 02:28:33;;;;;;;2.45;1.90;;;;;;;30.43;47.82;98901.56;2073619;28;20512;-51
2023/08/20 02:29:33;;;;;;;2.15;1.95;;;;;;;30.42;47.79;98899.91;2075743;28;20064;-49
2023/08/20 02:30:42;;;;;;;2.47;2.33;;;;;;;30.42;47.41;98899.91;2072838;28;20055;-52
2023/08/20 02:31:42;;;;;;;2.83;2.22;;;;;;;30.42;47.42;98899.06;2072931;28;20496;-52
2023/08/20 02:32:44;;;;;;;2.28;2.10;;;;;;;30.42;47.78;98899.06;2076318;28;20062;-51
2023/08/20 02:33:45;;;;;;;1.80;1.70;;;;;;;30.42;47.48;98897.19;2074926;28;20491;-53
2023/08/20 02:34:50;;;;;;;2.13;2.03;;;;;;;30.44;47.27;98899.63;2076105;28;20045;-49
2023/08/20 02:35:51;;;;;;;1.88;1.77;;;;;;;30.43;47.52;98896.06;2072585;28;20042;-50
2023/08/20 02:36:52;;;;;;;4.90;2.33;;;;;;;30.41;47.67;98900.19;2075061;28;20500;-50
2023/08/20 02:37:53;;;;;;;2.10;2.00;;;;;;;30.42;47.57;98899.06;2075120;28;20048;-53
2023/08/20 02:38:55;;;;;;;2.20;1.95;;;;;;;30.43;47.53;98898.81;2077553;28;20411;-51
2023/08/20 02:39:56;;;;;;;1.80;1.70;;;;;;;30.43;47.28;98892.53;2074613;28;20046;-52
2023/08/20 02:40:57;;;;;;;1.88;1.73;;;;;;;30.41;47.35;98894.72;2076015;28;20872;-50
2023/08/20 02:41:58;;;;;;;2.65;2.38;;;;;;;30.42;47.52;98891.72;2073584;28;20539;-53
2023/08/20 02:42:59;;;;;;;2.08;1.95;;;;;;;30.41;47.32;98898.25;2074861;28;20339;-49
2023/08/20 02:44:01;;;;;;;2.30;2.10;;;;;;;30.41;47.48;98894.72;2072577;28;20495;-50
2023/08/20 02:45:02;;;;;;;3.53;2.63;;;;;;;30.41;47.39;98895.53;2074964;28;20055;-52
2023/08/20 02:46:05;;;;;;;2.58;2.38;;;;;;;30.41;47.60;98890.06;2072152;28;20498;-50
2023/08/20 02:47:06;;;;;;;2.13;1.95;;;;;;;30.41;47.63;98890.06;2074504;28;20125;-51
2023/08/20 02:48:08;;;;;;;2.72;2.45;;;;;;;30.41;47.39;98890.06;2075911;28;20518;-52
2023/08/20 02:49:09;;;;;;;2.22;2.13;;;;;;;30.41;47.88;98898.25;2076522;28;20599;-54
2023/08/20 02:50:11;;;;;;;1.88;1.77;;;;;;;30.41;47.76;98892.78;2075284;28;20046;-54
2023/08/20 02:51:11;;;;;;;2.45;2.25;;;;;;;30.40;47.57;98888.41;2077437;28;20060;-50
2023/08/20 02:52:13;;;;;;;3.33;2.33;;;;;;;30.40;47.58;98891.16;2074134;28;20427;-55
2023/08/20 02:53:14;;;;;;;2.15;2.00;;;;;;;30.41;47.68;98891.97;2074497;28;20347;-53
2023/08/20 02:54:16;;;;;;;2.78;2.58;;;;;;;30.41;47.56;98894.72;2071679;28;20064;-49
2023/08/20 02:55:17;;;;;;;2.25;2.05;;;;;;;30.39;47.57;98885.94;2075119;28;20522;-49
2023/08/20 02:56:18;;;;;;;1.83;1.73;;;;;;;30.40;47.55;98891.16;2074242;28;20120;-53
2023/08/20 02:57:19;;;;;;;1.90;1.77;;;;;;;30.40;47.57;98885.69;2072714;28;20061;-49
2023/08/20 02:58:21;;;;;;;3.40;2.40;;;;;;;30.40;47.90;98893.91;2075534;28;20046;-49
2023/08/20 02:59:22;;;;;;;2.38;2.17;;;;;;;30.40;47.47;98887.59;2072809;28;20131;-49
2023/08/20 03:00:22;;;;;;;2.28;2.08;;;;;;;30.40;47.64;98891.16;2075162;28;20776;-51
2023/08/20 03:01:27;;;;;;;2.38;2.17;;;;;;;30.40;47.42;98893.91;2073228;28;20068;-49
2023/08/20 03:02:28;;;;;;;2.03;1.90;;;;;;;30.39;47.33;98888.69;2072926;28;20241;-49
2023/08/20 03:03:30;;;;;;;1.95;1.85;;;;;;;30.39;47.49;98892.22;2073780;28;20415;-53
2023/08/20 03:04:30;;;;;;;2.30;2.10;;;;;;;30.39;47.77;98892.22;2074699;28;20216;-52
2023/08/20 03:05:31;;;;;;;2.08;1.88;;;;;;;30.39;47.65;98888.69;2075105;28;20041;-50
2023/08/20 03:06:33;;;;;;;2.05;1.95;;;;;;;30.40;47.61;98891.16;2075438;28;20064;-51
2023/08/20 03:07:34;;;;;;;2.30;2.05;;;;;;;30.39;47.57;98892.22;2075113;28;20081;-50
2023/08/20 03:08:36;;;;;;;2.10;1.90;;;;;;;30.39;47.70;98891.41;2075748;28;20045;-53
2023/08/20 03:09:36;;;;;;;1.77;1.67;;;;;;;30.39;47.47;98884.03;2073998;28;20041;-49
2023/08/20 03:10:38;;;;;;;2.17;1.95;;;;;;;30.39;47.76;98881.28;2075460;28;20055;-53
2023/08/20 03:11:39;;;;;;;1.83;1.73;;;;;;;30.39;47.36;98886.75;2069787;28;20083;-54
2023/08/20 03:12:41;;;;;;;2.30;2.10;;;;;;;30.39;47.48;98881.28;2072554;28;20420;-50
2023/08/20 03:13:42;;;;;;;1.95;1.85;;;;;;;30.40;47.69;98880.22;2072208;28;20049;-54
2023/08/20 03:14:43;;;;;;;2.20;2.00;;;;;;;30.40;47.84;98877.47;2077972;28;20381;-52
2023/08/20 03:15:44;;;;;;;1.73;1.63;;;;;;;30.39;47.57;98884.03;2081428;28;20053;-51
2023/08/20 03:16:47;;;;;;;1.92;1.75;;;;;;;30.39;47.69;98884.03;2076763;28;20484;-53
2023/08/20 03:17:48;;;;;;;3.80;2.47;;;;;;;30.38;47.49;98887.06;2083411;28;20053;-52
2023/08/20 03:18:50;;;;;;;1.90;1.80;;;;;;;30.40;47.37;98884.88;2080935;28;20067;-50
2023/08/20 03:19:55;;;;;;;2.42;2.22;;;;;;;30.39;47.58;98884.03;2080876;28;20065;-53
2023/08/20 03:20:57;;;;;;;1.85;1.75;;;;;;;30.40;47.43;98882.94;2083486;28;20123;-52
2023/08/20 03:21:58;;;;;;;2.35;2.00;;;;;;;30.40;47.34;98879.41;2082590;28;20068;-52
2023/08/20 03:23:00;;;;;;;2.30;2.17;;;;;;;30.38;47.44;98884.31;2083972;28;20041;-49
2023/08/20 03:24:01;;;;;;;2.20;2.05;;;;;;;30.37;47.63;98878.03;2083692;28;20487;-49
2023/08/20 03:25:03;;;;;;;2.40;2.20;;;;;;;30.39;47.65;98881.28;2082932;28;20155;-53
2023/08/20 03:26:03;;;;;;;2.40;2.20;;;;;;;30.38;47.94;98879.66;2083044;28;20041;-50
2023/08/20 03:27:05;;;;;;;2.63;2.42;;;;;;;30.37;47.73;98878.03;2081522;28;20436;-49
2023/08/20 03:28:06;;;;;;;2.00;1.90;;;;;;;30.38;47.30;98878.84;2080311;28;20144;-53
2023/08/20 03:29:08;;;;;;;2.35;2.17;;;;;;;30.39;47.36;98873.06;2082533;28;20427;-49
2023/08/20 03:30:09;;;;;;;2.15;2.03;;;;;;;30.40;47.63;98882.13;2079842;28;20045;-53
2023/08/20 03:31:11;;;;;;;1.85;1.75;;;;;;;30.38;47.46;98876.09;2077920;28;20049;-53
2023/08/20 03:32:13;;;;;;;2.20;2.05;;;;;;;30.39;47.72;98873.06;2081149;28;20068;-53
2023/08/20 03:33:16;;;;;;;2.10;1.90;;;;;;;30.37;47.51;98880.75;2081328;28;21349;-49
2023/08/20 03:34:17;;;;;;;2.08;1.98;;;;;;;30.37;47.38;98882.66;2083179;28;20055;-51
2023/08/20 03:35:19;;;;;;;2.33;2.03;;;;;;;30.37;47.80;98878.03;2082316;28;20589;-52
2023/08/20 03:36:20;;;;;;;2.17;2.05;;;;;;;30.37;47.71;98877.19;2082003;28;20089;-52
2023/08/20 03:37:22;;;;;;;2.22;1.80;;;;;;;30.38;47.38;98878.84;2083225;28;20045;-53
2023/08/20 03:38:23;;;;;;;2.13;2.03;;;;;;;30.38;47.86;98879.66;2083615;28;20103;-52
2023/08/20 03:39:25;;;;;;;2.35;2.15;;;;;;;30.38;47.79;98873.38;2081013;28;20048;-51
2023/08/20 03:40:27;;;;;;;2.28;2.17;;;;;;;30.37;47.69;98874.44;2085794;28;20081;-49
2023/08/20 03:41:29;;;;;;;2.25;1.90;;;;;;;30.37;47.56;98877.19;2082810;28;20045;-53
2023/08/20 03:42:30;;;;;;;2.17;1.98;;;;;;;30.36;47.55;98876.38;2083382;28;20045;-54
2023/08/20 03:43:32;;;;;;;2.58;2.38;;;;;;;30.36;47.46;98881.03;2083157;28;20052;-52
2023/08/20 03:44:33;;;;;;;2.17;2.00;;;;;;;30.37;47.88;98878.03;2079141;28;20542;-54
2023/08/20 03:45:34;;;;;;;2.70;2.45;;;;;;;30.38;47.75;98879.66;2081379;28;20053;-50
2023/08/20 03:46:35;;;;;;;2.70;2.50;;;;;;;30.37;47.70;98874.44;2083805;28;20052;-51
2023/08/20 03:47:38;;;;;;;2.47;2.33;;;;;;;30.37;47.60;98866.25;2082633;28;20049;-53
2023/08/20 03:48:39;;;;;;;2.20;2.05;;;;;;;30.35;47.54;98874.75;2071158;28;20084;-50
2023/08/20 03:49:41;;;;;;;2.03;1.90;;;;;;;30.36;47.55;98868.16;2074990;28;20057;-51
2023/08/20 03:50:42;;;;;;;2.05;1.95;;;;;;;30.33;47.86;98870.63;2074941;28;20305;-54
2023/08/20 03:51:44;;;;;;;2.20;2.00;;;;;;;30.35;47.94;98874.75;2082081;28;20050;-50
2023/08/20 03:52:44;;;;;;;2.00;1.88;;;;;;;30.35;47.54;98877.47;2085645;28;20135;-52
2023/08/20 03:53:46;;;;;;;2.15;1.95;;;;;;;30.37;47.38;98878.03;2080896;28;20049;-53
2023/08/20 03:54:47;;;;;;;2.22;2.00;;;;;;;30.36;47.58;98870.91;2073678;28;20119;-49
2023/08/20 03:55:49;;;;;;;3.30;1.63;;;;;;;30.37;47.84;98874.44;2073627;28;20051;-49
2023/08/20 03:56:50;;;;;;;2.33;2.20;;;;;;;30.37;47.73;98874.44;2074561;28;20415;-52
2023/08/20 03:57:52;;;;;;;2.25;2.15;;;;;;;30.38;47.39;98876.09;2071616;28;20050;-53
2023/08/20 03:58:53;;;;;;;2.22;2.00;;;;;;;30.36;47.74;98870.91;2075796;28;20415;-52
2023/08/20 03:59:54;;;;;;;2.13;2.03;;;;;;;30.36;47.58;98870.06;2082821;28;20046;-52
2023/08/20 04:00:56;;;;;;;1.77;1.67;;;;;;;30.36;47.73;98872.81;2081528;28;20500;-50
2023/08/20 04:01:57;;;;;;;1.80;1.70;;;;;;;30.36;47.46;98873.63;2082303;28;20487;-49
2023/08/20 04:03:00;;;;;;;2.28;2.10;;;;;;;30.37;47.71;98875.28;2081618;28;20052;-54
2023/08/20 04:04:01;;;;;;;2.55;2.35;;;;;;;30.37;47.57;98878.03;2082573;28;20425;-51
2023/08/20 04:05:03;;;;;;;2.35;2.15;;;;;;;30.37;47.62;98871.72;2081881;28;20136;-52
2023/08/20 04:06:05;;;;;;;2.22;2.03;;;;;;;30.36;47.37;98865.41;2081642;28;20053;-54
2023/08/20 04:07:05;;;;;;;2.25;2.05;;;;;;;30.36;47.82;98872.81;2083019;28;20041;-50
2023/08/20 04:08:07;;;;;;;1.98;1.77;;;;;;;30.35;47.86;98866.53;2083993;28;20045;-51
2023/08/20 04:09:09;;;;;;;2.10;1.90;;;;;;;30.36;47.53;98876.38;2081914;28;20095;-50
2023/08/20 04:10:11;;;;;;;1.75;1.65;;;;;;;30.36;47.85;98867.34;2084943;28;20127;-49
2023/08/20 04:11:11;;;;;;;2.05;1.88;;;;;;;30.34;47.57;98864.06;2078198;28;20052;-52
2023/08/20 04:12:13;;;;;;;2.33;2.13;;;;;;;30.34;47.32;98867.63;2075912;28;20049;-52
2023/08/20 04:13:16;;;;;;;2.35;2.00;;;;;;;30.35;47.44;98872.00;2072308;28;20049;-53
2023/08/20 04:14:16;;;;;;;1.98;1.88;;;;;;;30.35;47.51;98872.00;2075496;28;20060;-52
2023/08/20 04:15:18;;;;;;;2.20;2.00;;;;;;;30.36;47.62;98870.91;2073733;28;20057;-51
2023/08/20 04:16:19;;;;;;;1.98;1.80;;;;;;;30.35;47.67;98874.75;2076225;28;20060;-53
2023/08/20 04:17:21;;;;;;;1.83;1.73;;;;;;;30.34;47.88;98869.53;2075209;28;20045;-53
2023/08/20 04:18:24;;;;;;;2.45;2.25;;;;;;;30.35;47.61;98871.19;2073810;28;20084;-50
2023/08/20 04:19:26;;;;;;;2.00;1.83;;;;;;;30.34;47.64;98867.63;2074285;28;20089;-53
2023/08/20 04:20:26;;;;;;;1.80;1.70;;;;;;;30.35;47.43;98874.75;2074596;28;20045;-55
2023/08/20 04:21:28;;;;;;;2.20;2.00;;;;;;;30.34;47.68;98872.25;2072470;28;20129;-50
2023/08/20 04:22:31;;;;;;;2.22;2.13;;;;;;;30.35;47.70;98868.44;2074465;28;20125;-51
2023/08/20 04:23:33;;;;;;;1.58;1.48;;;;;;;30.34;47.70;98870.38;2071618;28;20492;-51
2023/08/20 04:24:33;;;;;;;2.47;2.28;;;;;;;30.33;47.67;98868.72;2073860;28;20064;-53
2023/08/20 04:25:35;;;;;;;2.20;2.10;;;;;;;30.34;47.50;98872.25;2074410;28;20504;-49
2023/08/20 04:26:36;;;;;;;2.53;2.33;;;;;;;30.33;47.36;98870.63;2074279;28;20064;-50
2023/08/20 04:27:38;;;;;;;1.95;1.85;;;;;;;30.33;47.41;98876.91;2083141;28;20051;-56
2023/08/20 04:28:39;;;;;;;1.77;1.67;;;;;;;30.33;47.81;98874.19;2084244;28;20079;-49
2023/08/20 04:29:40;;;;;;;1.95;1.85;;;;;;;30.33;47.61;98874.19;2082599;28;20235;-54
2023/08/20 04:30:41;;;;;;;1.90;1.77;;;;;;;30.33;47.46;98876.91;2075965;28;20095;-55
2023/08/20 04:31:43;;;;;;;1.80;1.70;;;;;;;30.34;47.61;98875.84;2074649;28;20053;-53
2023/08/20 04:32:44;;;;;;;2.08;1.98;;;;;;;30.34;47.59;98872.25;2080818;28;20046;-51
2023/08/20 04:33:48;;;;;;;2.15;1.98;;;;;;;30.34;47.52;98872.25;2081724;28;20140;-50
2023/08/20 04:34:49;;;;;;;1.98;1.88;;;;;;;30.33;47.73;98871.44;2084267;28;20079;-53
2023/08/20 04:35:51;;;;;;;2.63;2.42;;;;;;;30.32;47.80;98872.56;2081090;28;20055;-51
2023/08/20 04:36:52;;;;;;;1.90;1.80;;;;;;;30.32;47.51;98872.56;2082819;28;20041;-50
2023/08/20 04:37:53;;;;;;;2.40;2.20;;;;;;;30.32;47.77;98869.81;2080140;28;20050;-51
2023/08/20 04:38:54;;;;;;;2.17;2.08;;;;;;;30.33;47.73;98878.84;2081100;28;20076;-50
2023/08/20 04:39:56;;;;;;;2.20;2.08;;;;;;;30.33;47.47;98876.09;2079289;28;20041;-54
2023/08/20 04:40:57;;;;;;;2.25;2.05;;;;;;;30.33;47.65;98879.66;2081172;28;20092;-50
2023/08/20 04:42:00;;;;;;;2.05;1.95;;;;;;;30.32;47.51;98878.03;2083637;28;20051;-54
2023/08/20 04:43:00;;;;;;;3.33;2.00;;;;;;;30.32;47.56;98879.94;2082082;28;20053;-55
2023/08/20 04:44:02;;;;;;;2.20;1.95;;;;;;;30.33;47.73;98876.91;2082372;28;20127;-51
2023/08/20 04:45:04;;;;;;;2.47;2.28;;;;;;;30.33;47.82;98876.09;2081054;28;20045;-53
2023/08/20 04:46:06;;;;;;;2.10;1.90;;;;;;;30.32;47.42;98875.28;2076845;28;20120;-49
2023/08/20 04:47:11;;;;;;;3.30;2.25;;;;;;;30.33;47.32;98882.41;2076984;28;20069;-50
2023/08/20 04:48:13;;;;;;;1.90;1.80;;;;;;;30.32;47.79;98883.50;2076449;28;20053;-52
2023/08/20 04:49:15;;;;;;;3.47;1.90;;;;;;;30.33;47.32;98887.06;2072581;28;20492;-52
2023/08/20 04:50:17;;;;;;;1.65;1.55;;;;;;;30.33;47.50;98885.13;2078551;28;20045;-52
2023/08/20 04:51:17;;;;;;;2.42;2.22;;;;;;;30.32;47.37;98882.69;2073745;28;20045;-51
2023/08/20 04:52:20;;;;;;;2.47;2.28;;;;;;;30.32;47.53;98886.25;2075368;28;20196;-53
2023/08/20 04:53:21;;;;;;;3.05;2.03;;;;;;;30.33;47.71;98887.88;2076358;28;20442;-50